Time;durP1;ratioP1;P1;durP2;ratioP2;P2;SDS_P1;SDS_P2;PMS_P1;PMS_P2;Temp;Humidity;BMP_temperature;BMP_pressure;BME280_temperature;BME280_humidity;BME280_pressure;Samples;Min_cycle;Max_cycle;Signal;HPM_P1;HPM_P2
2021/07/30 00:00:43;;;;;;;;;;;14.60;99.90;;;;;;5069812;28;19909;-55
2021/07/30 00:03:08;;;;;;;;;;;14.60;99.90;;;;;;5069673;28;19908;-52
2021/07/30 00:05:34;;;;;;;;;;;14.60;99.90;;;;;;5069270;28;19965;-53
2021/07/30 00:07:59;;;;;;;;;;;14.60;99.90;;;;;;5083834;28;19908;-52
2021/07/30 00:10:25;;;;;;;;;;;14.60;99.90;;;;;;5069930;28;20430;-52
2021/07/30 00:12:55;;;;;;;;;;;14.60;99.90;;;;;;5068455;28;19958;-53
2021/07/30 00:15:21;;;;;;;;;;;14.60;99.90;;;;;;5062941;28;19913;-54
2021/07/30 00:17:46;;;;;;;;;;;14.60;99.90;;;;;;5069025;28;20011;-55
2021/07/30 00:20:12;;;;;;;;;;;14.60;99.90;;;;;;5069839;28;20484;-52
2021/07/30 00:22:37;;;;;;;;;;;14.60;99.90;;;;;;5070348;28;19912;-52
2021/07/30 00:25:04;;;;;;;;;;;14.60;99.90;;;;;;5070178;28;20410;-52
2021/07/30 00:54:57;;;;;;;;;;;14.30;99.90;;;;;;5068566;28;19974;-54
2021/07/30 00:57:23;;;;;;;;;;;14.30;99.90;;;;;;5067787;28;19944;-52
2021/07/30 00:59:49;;;;;;;;;;;14.30;99.90;;;;;;5079530;28;20622;-51
2021/07/30 01:02:16;;;;;;;;;;;14.30;99.90;;;;;;5067373;28;19954;-53
2021/07/30 01:04:41;;;;;;;;;;;14.20;99.90;;;;;;5066935;28;19909;-54
2021/07/30 01:07:07;;;;;;;;;;;14.20;99.90;;;;;;5066426;28;19908;-52
2021/07/30 01:09:32;;;;;;;;;;;14.20;99.90;;;;;;5067284;28;19954;-55
2021/07/30 01:12:00;;;;;;;;;;;14.20;99.90;;;;;;5068914;28;19955;-55
2021/07/30 01:14:25;;;;;;;;;;;14.20;99.90;;;;;;5060614;28;19944;-51
2021/07/30 01:16:51;;;;;;;;;;;14.10;99.90;;;;;;5068833;28;19948;-53
2021/07/30 01:19:21;;;;;;;;;;;14.10;99.90;;;;;;5068514;28;19915;-53
2021/07/30 01:21:48;;;;;;;;;;;14.10;99.90;;;;;;5068272;28;19912;-52
2021/07/30 01:24:14;;;;;;;;;;;14.00;99.90;;;;;;5068187;28;19909;-53
2021/07/30 01:26:39;;;;;;;;;;;14.00;99.90;;;;;;5068336;28;19912;-55
2021/07/30 01:29:05;;;;;;;;;;;14.00;99.90;;;;;;5068479;28;20012;-54
2021/07/30 01:31:30;;;;;;;;;;;14.00;99.90;;;;;;5068642;28;19915;-52
2021/07/30 01:33:55;;;;;;;;;;;14.00;99.90;;;;;;5068800;28;20035;-51
2021/07/30 01:36:21;;;;;;;;;;;14.00;99.90;;;;;;5067323;28;19920;-55
2021/07/30 01:38:46;;;;;;;;;;;14.00;99.90;;;;;;5068837;28;19908;-56
2021/07/30 01:41:12;;;;;;;;;;;13.90;99.90;;;;;;5069199;28;19908;-52
2021/07/30 01:43:42;;;;;;;;;;;14.00;99.90;;;;;;5068914;28;20294;-53
2021/07/30 01:46:07;;;;;;;;;;;13.90;99.90;;;;;;5067168;28;19963;-54
2021/07/30 01:48:32;;;;;;;;;;;13.90;99.90;;;;;;5068310;28;20015;-54
2021/07/30 01:50:58;;;;;;;;;;;13.90;99.90;;;;;;5068050;28;19915;-56
2021/07/30 01:53:24;;;;;;;;;;;14.00;99.90;;;;;;5067672;28;20384;-52
2021/07/30 01:55:49;;;;;;;;;;;13.90;99.90;;;;;;5072051;28;20007;-52
2021/07/30 01:58:14;;;;;;;;;;;13.90;99.90;;;;;;5071990;28;20488;-55
2021/07/30 02:00:40;;;;;;;;;;;13.90;99.90;;;;;;5072411;28;19912;-52
2021/07/30 02:03:05;;;;;;;;;;;13.90;99.90;;;;;;5070924;28;19947;-54
2021/07/30 02:05:31;;;;;;;;;;;13.90;99.90;;;;;;5071618;28;19916;-52
2021/07/30 02:07:56;;;;;;;;;;;13.90;99.90;;;;;;5071023;28;20367;-52
2021/07/30 02:10:22;;;;;;;;;;;13.90;99.90;;;;;;5071910;28;19916;-53
2021/07/30 02:15:31;;;;;;;;;;;13.80;99.90;;;;;;5070305;28;19919;-51
2021/07/30 02:17:57;;;;;;;;;;;13.80;99.90;;;;;;5072605;28;19912;-52
2021/07/30 02:20:22;;;;;;;;;;;13.80;99.90;;;;;;5072216;28;19962;-51
2021/07/30 02:22:48;;;;;;;;;;;13.80;99.90;;;;;;5072231;28;19908;-52
2021/07/30 02:25:13;;;;;;;;;;;13.70;99.90;;;;;;5071810;28;20003;-54
2021/07/30 02:27:39;;;;;;;;;;;13.70;99.90;;;;;;5071658;28;20329;-51
2021/07/30 02:30:04;;;;;;;;;;;13.70;99.90;;;;;;5071627;28;19919;-53
2021/07/30 02:32:30;;;;;;;;;;;13.70;99.90;;;;;;5071378;28;19920;-53
2021/07/30 02:34:55;;;;;;;;;;;13.70;99.90;;;;;;5071358;28;19924;-52
2021/07/30 02:37:21;;;;;;;;;;;13.70;99.90;;;;;;5072194;28;19969;-51
2021/07/30 02:39:46;;;;;;;;;;;13.60;99.90;;;;;;5072062;28;19912;-52
2021/07/30 02:42:12;;;;;;;;;;;13.60;99.90;;;;;;5071956;28;20311;-54
2021/07/30 02:44:37;;;;;;;;;;;13.60;99.90;;;;;;5071567;28;19940;-56
2021/07/30 02:47:03;;;;;;;;;;;13.60;99.90;;;;;;5071806;28;20302;-52
2021/07/30 02:49:28;;;;;;;;;;;13.60;99.90;;;;;;5071738;28;19908;-53
2021/07/30 02:51:54;;;;;;;;;;;13.60;99.90;;;;;;5071062;28;19916;-54
2021/07/30 02:54:19;;;;;;;;;;;13.60;99.90;;;;;;5071171;28;20452;-52
2021/07/30 02:56:45;;;;;;;;;;;13.50;99.90;;;;;;5070573;28;20403;-55
2021/07/30 02:59:10;;;;;;;;;;;13.50;99.90;;;;;;5071069;28;19905;-52
2021/07/30 03:01:36;;;;;;;;;;;13.50;99.90;;;;;;5071127;28;19913;-53
2021/07/30 03:04:01;;;;;;;;;;;13.50;99.90;;;;;;5071200;28;20015;-53
2021/07/30 03:06:27;;;;;;;;;;;13.50;99.90;;;;;;5069687;28;19909;-52
2021/07/30 03:08:52;;;;;;;;;;;13.50;99.90;;;;;;5070693;28;20286;-52
2021/07/30 03:11:17;;;;;;;;;;;13.40;99.90;;;;;;5071050;28;19909;-53
2021/07/30 03:13:43;;;;;;;;;;;13.40;99.90;;;;;;5070665;28;19915;-55
2021/07/30 03:16:11;;;;;;;;;;;13.30;99.90;;;;;;5069075;28;19957;-52
2021/07/30 03:18:37;;;;;;;;;;;13.30;99.90;;;;;;5070645;28;19920;-51
2021/07/30 03:21:02;;;;;;;;;;;13.30;99.90;;;;;;5070417;28;19909;-51
2021/07/30 03:23:28;;;;;;;;;;;13.30;99.90;;;;;;5070713;28;20421;-51
2021/07/30 03:25:53;;;;;;;;;;;13.30;99.90;;;;;;5068933;28;19946;-52
2021/07/30 03:28:19;;;;;;;;;;;13.30;99.90;;;;;;5070793;28;19915;-51
2021/07/30 03:30:44;;;;;;;;;;;13.20;99.90;;;;;;5070538;28;20431;-51
2021/07/30 03:33:10;;;;;;;;;;;13.20;99.90;;;;;;5070406;28;19966;-54
2021/07/30 03:35:35;;;;;;;;;;;13.20;99.90;;;;;;5069926;28;20003;-52
2021/07/30 03:38:01;;;;;;;;;;;13.20;99.90;;;;;;5070378;28;19909;-52
2021/07/30 03:40:26;;;;;;;;;;;13.10;99.90;;;;;;5070552;28;20347;-55
2021/07/30 03:42:52;;;;;;;;;;;13.10;99.90;;;;;;5070175;28;20020;-52
2021/07/30 03:45:17;;;;;;;;;;;13.10;99.90;;;;;;5070090;28;19912;-52
2021/07/30 03:47:42;;;;;;;;;;;13.10;99.90;;;;;;5070354;28;19909;-52
2021/07/30 03:50:08;;;;;;;;;;;13.10;99.90;;;;;;5070024;28;19916;-55
2021/07/30 03:52:34;;;;;;;;;;;13.00;99.90;;;;;;5070181;28;19912;-51
2021/07/30 03:54:59;;;;;;;;;;;13.10;99.90;;;;;;5069513;28;19912;-53
2021/07/30 03:57:25;;;;;;;;;;;13.00;99.90;;;;;;5070047;28;19915;-53
2021/07/30 03:59:53;;;;;;;;;;;13.00;99.90;;;;;;5069657;28;20376;-53
2021/07/30 04:02:18;;;;;;;;;;;13.00;99.90;;;;;;5069843;28;19908;-52
2021/07/30 04:04:43;;;;;;;;;;;13.00;99.90;;;;;;5069287;28;19915;-55
2021/07/30 04:07:09;;;;;;;;;;;13.00;99.90;;;;;;5069077;28;19920;-51
2021/07/30 04:09:34;;;;;;;;;;;13.00;99.90;;;;;;5069711;28;19912;-52
2021/07/30 04:12:00;;;;;;;;;;;13.10;99.90;;;;;;5069684;28;20453;-55
2021/07/30 04:14:25;;;;;;;;;;;13.10;99.90;;;;;;5069489;28;19924;-53
2021/07/30 04:16:51;;;;;;;;;;;13.00;99.90;;;;;;5068706;28;19909;-53
2021/07/30 04:19:16;;;;;;;;;;;13.10;99.90;;;;;;5067976;28;20280;-52
2021/07/30 04:21:42;;;;;;;;;;;13.10;99.90;;;;;;5069385;28;20013;-53
2021/07/30 04:24:07;;;;;;;;;;;13.10;99.90;;;;;;5067883;28;20462;-51
2021/07/30 04:26:33;;;;;;;;;;;13.10;99.90;;;;;;5068695;28;19908;-53
2021/07/30 04:28:58;;;;;;;;;;;13.10;99.90;;;;;;5069442;28;20496;-52
2021/07/30 04:31:24;;;;;;;;;;;13.10;99.90;;;;;;5069325;28;19912;-53
2021/07/30 04:33:49;;;;;;;;;;;13.10;99.90;;;;;;5067708;28;19982;-52
2021/07/30 04:36:15;;;;;;;;;;;13.10;99.90;;;;;;5065565;28;20420;-51
2021/07/30 04:38:42;;;;;;;;;;;13.20;99.90;;;;;;5060970;28;19909;-52
2021/07/30 04:41:07;;;;;;;;;;;13.20;99.90;;;;;;5068152;28;20367;-54
2021/07/30 04:43:33;;;;;;;;;;;13.10;99.90;;;;;;5069391;28;19908;-53
2021/07/30 04:45:58;;;;;;;;;;;13.20;99.90;;;;;;5069151;28;20035;-55
2021/07/30 04:48:23;;;;;;;;;;;13.20;99.90;;;;;;5068808;28;19912;-54
2021/07/30 04:50:49;;;;;;;;;;;13.20;99.90;;;;;;5069015;28;19997;-51
2021/07/30 04:53:14;;;;;;;;;;;13.20;99.90;;;;;;5068695;28;19917;-52
2021/07/30 04:55:40;;;;;;;;;;;13.20;99.90;;;;;;5068900;28;20451;-51
2021/07/30 04:58:05;;;;;;;;;;;13.30;99.90;;;;;;5068885;28;19916;-52
2021/07/30 05:00:31;;;;;;;;;;;13.40;99.90;;;;;;5069303;28;19916;-54
2021/07/30 05:02:56;;;;;;;;;;;13.40;99.90;;;;;;5068908;28;19912;-54
2021/07/30 05:05:22;;;;;;;;;;;13.40;99.90;;;;;;5068428;28;20007;-51
2021/07/30 05:07:47;;;;;;;;;;;13.40;99.90;;;;;;5069008;28;19988;-53
2021/07/30 05:10:13;;;;;;;;;;;13.50;99.90;;;;;;5067370;28;19969;-55
2021/07/30 05:12:39;;;;;;;;;;;13.50;99.90;;;;;;5068842;28;19909;-53
2021/07/30 05:15:05;;;;;;;;;;;13.50;99.90;;;;;;5068612;28;19912;-52
2021/07/30 05:17:30;;;;;;;;;;;13.50;99.90;;;;;;5068653;28;19909;-53
2021/07/30 05:19:56;;;;;;;;;;;13.60;99.90;;;;;;5068716;28;19987;-51
2021/07/30 05:22:21;;;;;;;;;;;13.60;99.90;;;;;;5068323;28;20004;-54
2021/07/30 05:24:47;;;;;;;;;;;13.70;99.90;;;;;;5068378;28;20078;-53
2021/07/30 05:27:12;;;;;;;;;;;13.70;99.90;;;;;;5068578;28;20297;-52
2021/07/30 05:29:38;;;;;;;;;;;13.80;99.90;;;;;;5068516;28;19908;-52
2021/07/30 05:32:03;;;;;;;;;;;13.80;99.90;;;;;;5068193;28;19920;-51
2021/07/30 05:34:30;;;;;;;;;;;13.90;99.90;;;;;;5067869;28;20011;-55
2021/07/30 05:36:56;;;;;;;;;;;13.90;99.90;;;;;;5068667;28;19985;-53
2021/07/30 05:39:21;;;;;;;;;;;14.00;99.90;;;;;;5068531;28;19988;-51
2021/07/30 05:41:47;;;;;;;;;;;14.00;99.90;;;;;;5068876;28;20337;-53
2021/07/30 05:44:13;;;;;;;;;;;14.10;99.90;;;;;;5068688;28;20412;-51
2021/07/30 05:46:39;;;;;;;;;;;14.10;99.90;;;;;;5068169;28;20476;-53
2021/07/30 05:49:04;;;;;;;;;;;14.20;99.90;;;;;;5067303;28;19909;-52
2021/07/30 05:51:30;;;;;;;;;;;14.20;99.90;;;;;;5068348;28;19908;-51
2021/07/30 05:53:55;;;;;;;;;;;14.30;99.90;;;;;;5068191;28;19912;-53
2021/07/30 05:56:20;;;;;;;;;;;14.30;99.90;;;;;;5067689;28;19920;-52
2021/07/30 05:58:46;;;;;;;;;;;14.40;99.90;;;;;;5068585;28;20695;-53
2021/07/30 06:01:13;;;;;;;;;;;14.50;99.90;;;;;;5065792;28;19908;-54
2021/07/30 06:03:38;;;;;;;;;;;14.50;99.90;;;;;;5068076;28;19939;-52
2021/07/30 06:06:04;;;;;;;;;;;14.70;99.90;;;;;;5067706;28;20422;-52
2021/07/30 06:08:29;;;;;;;;;;;14.70;99.90;;;;;;5068291;28;20375;-50
2021/07/30 06:10:55;;;;;;;;;;;14.80;99.90;;;;;;5068170;28;19909;-53
2021/07/30 06:13:20;;;;;;;;;;;14.90;99.90;;;;;;5067939;28;19913;-51
2021/07/30 06:15:46;;;;;;;;;;;15.00;99.90;;;;;;5067638;28;19975;-52
2021/07/30 06:18:11;;;;;;;;;;;15.00;99.90;;;;;;5068055;28;20369;-53
2021/07/30 06:20:37;;;;;;;;;;;15.20;99.90;;;;;;5068069;28;19916;-53
2021/07/30 06:23:02;;;;;;;;;;;15.30;99.90;;;;;;5068113;28;19954;-56
2021/07/30 06:25:28;;;;;;;;;;;15.40;99.90;;;;;;5067922;28;19908;-54
2021/07/30 06:27:53;;;;;;;;;;;15.50;99.90;;;;;;5067644;28;19912;-53
2021/07/30 06:30:19;;;;;;;;;;;15.60;99.90;;;;;;5068269;28;19909;-52
2021/07/30 06:32:45;;;;;;;;;;;15.80;99.90;;;;;;5067632;28;19916;-54
2021/07/30 06:35:13;;;;;;;;;;;15.90;99.90;;;;;;5067660;28;20378;-54
2021/07/30 06:37:38;;;;;;;;;;;16.00;99.90;;;;;;5067970;28;19912;-52
2021/07/30 06:40:04;;;;;;;;;;;16.10;99.90;;;;;;5068193;28;19987;-53
2021/07/30 06:42:36;;;;;;;;;;;16.30;99.90;;;;;;5071704;28;19908;-55
2021/07/30 06:45:02;;;;;;;;;;;16.40;99.90;;;;;;5071158;28;19916;-51
2021/07/30 06:47:28;;;;;;;;;;;16.50;99.90;;;;;;5071585;28;20504;-52
2021/07/30 06:49:53;;;;;;;;;;;16.70;99.90;;;;;;5071934;28;20007;-51
2021/07/30 06:52:19;;;;;;;;;;;16.90;99.90;;;;;;5068941;28;19920;-51
2021/07/30 06:54:44;;;;;;;;;;;17.10;99.90;;;;;;5060234;28;19912;-54
2021/07/30 06:57:11;;;;;;;;;;;17.20;99.90;;;;;;5067314;28;19948;-54
2021/07/30 06:59:37;;;;;;;;;;;17.40;99.90;;;;;;5070148;28;19908;-53
2021/07/30 07:02:03;;;;;;;;;;;17.50;99.90;;;;;;5070835;28;19908;-54
2021/07/30 07:04:29;;;;;;;;;;;17.70;99.90;;;;;;5062059;28;20015;-53
2021/07/30 07:06:54;;;;;;;;;;;17.90;99.90;;;;;;5067855;28;20011;-53
2021/07/30 07:09:20;;;;;;;;;;;18.00;99.90;;;;;;5067106;28;20302;-52
2021/07/30 07:11:45;;;;;;;;;;;18.20;99.90;;;;;;5068559;28;20378;-52
2021/07/30 07:14:11;;;;;;;;;;;18.30;99.90;;;;;;5066954;28;20002;-55
2021/07/30 07:16:37;;;;;;;;;;;18.50;99.90;;;;;;5064019;28;19908;-51
2021/07/30 07:19:04;;;;;;;;;;;18.70;99.90;;;;;;5070754;28;20364;-53
2021/07/30 07:21:32;;;;;;;;;;;18.80;99.90;;;;;;5069387;28;19908;-53
2021/07/30 07:23:57;;;;;;;;;;;18.90;99.90;;;;;;5070821;28;19915;-51
2021/07/30 07:26:23;;;;;;;;;;;19.00;99.90;;;;;;5070441;28;19908;-50
2021/07/30 07:28:48;;;;;;;;;;;19.10;99.90;;;;;;5070854;28;19909;-52
2021/07/30 07:31:14;;;;;;;;;;;19.30;99.90;;;;;;5070525;28;19952;-53
2021/07/30 07:33:39;;;;;;;;;;;19.50;99.90;;;;;;5070660;28;19916;-51
2021/07/30 07:36:04;;;;;;;;;;;19.60;99.90;;;;;;5070205;28;19913;-51
2021/07/30 07:38:30;;;;;;;;;;;19.80;99.90;;;;;;5071207;28;19919;-51
2021/07/30 07:40:56;;;;;;;;;;;19.90;99.90;;;;;;5071092;28;19912;-51
2021/07/30 07:43:21;;;;;;;;;;;20.10;99.90;;;;;;5086122;28;19908;-52
2021/07/30 07:45:46;;;;;;;;;;;20.20;99.90;;;;;;5070470;28;19931;-51
2021/07/30 07:48:12;;;;;;;;;;;20.40;99.90;;;;;;5070746;28;19909;-53
2021/07/30 07:50:37;;;;;;;;;;;20.50;99.90;;;;;;5070731;28;19931;-54
2021/07/30 07:53:16;;;;;;;;;;;20.60;99.90;;;;;;5070076;28;19916;-51
2021/07/30 07:55:42;;;;;;;;;;;20.70;99.90;;;;;;5070083;28;19966;-52
2021/07/30 07:58:08;;;;;;;;;;;20.90;99.90;;;;;;5069755;28;19909;-51
2021/07/30 08:00:33;;;;;;;;;;;21.10;99.90;;;;;;5069995;28;20148;-52
2021/07/30 08:02:59;;;;;;;;;;;21.20;99.90;;;;;;5069695;28;20003;-53
2021/07/30 08:05:24;;;;;;;;;;;21.30;99.90;;;;;;5069169;28;19916;-51
2021/07/30 08:07:50;;;;;;;;;;;21.60;99.90;;;;;;5065431;28;19916;-54
2021/07/30 08:10:15;;;;;;;;;;;21.80;99.90;;;;;;5054992;28;20358;-53
2021/07/30 08:12:40;;;;;;;;;;;21.90;99.60;;;;;;5052477;28;19908;-52
2021/07/30 08:15:06;;;;;;;;;;;22.10;99.60;;;;;;5065499;28;19973;-51
2021/07/30 08:17:33;;;;;;;;;;;22.20;99.90;;;;;;5069928;28;19935;-51
2021/07/30 08:19:59;;;;;;;;;;;22.20;98.80;;;;;;5070399;28;20329;-52
2021/07/30 08:22:24;;;;;;;;;;;22.40;98.70;;;;;;5069808;28;19909;-51
2021/07/30 08:24:50;;;;;;;;;;;22.40;99.00;;;;;;5069480;28;19932;-51
2021/07/30 08:27:15;;;;;;;;;;;22.50;98.40;;;;;;5069504;28;19912;-52
2021/07/30 08:29:42;;;;;;;;;;;22.60;96.90;;;;;;5069506;28;19916;-53
2021/07/30 08:32:08;;;;;;;;;;;22.50;98.00;;;;;;5069504;28;19928;-54
2021/07/30 08:34:35;;;;;;;;;;;22.80;98.00;;;;;;5103068;22;20394;-48
2021/07/30 08:37:00;;;;;;;;;;;22.90;97.80;;;;;;5071404;28;19914;-50
2021/07/30 08:39:26;;;;;;;;;;;23.10;97.60;;;;;;5089187;28;20310;-49
2021/07/30 08:41:54;;;;;;;;;;;23.20;96.60;;;;;;5070989;28;19915;-48
2021/07/30 08:44:21;;;;;;;;;;;23.30;96.10;;;;;;5089160;28;19908;-48
2021/07/30 08:46:46;;;;;;;;;;;23.30;95.30;;;;;;5084587;28;19913;-49
2021/07/30 08:49:12;;;;;;;;;;;23.40;96.30;;;;;;5081632;28;19911;-51
2021/07/30 08:51:42;;;;;;;;;;;23.70;95.80;;;;;;5089433;28;19995;-48
2021/07/30 08:54:08;;;;;;;;;;;23.80;96.40;;;;;;5089251;28;20423;-49
2021/07/30 08:56:37;;;;;;;;;;;24.00;96.50;;;;;;5088631;28;19920;-47
2021/07/30 08:59:03;;;;;;;;;;;24.00;95.10;;;;;;5089550;28;19908;-48
2021/07/30 09:01:28;;;;;;;;;;;24.10;94.70;;;;;;5088851;28;20449;-53
2021/07/30 09:03:54;;;;;;;;;;;24.10;95.00;;;;;;5088873;28;19908;-48
2021/07/30 09:06:20;;;;;;;;;;;24.10;93.10;;;;;;5089056;28;20302;-47
2021/07/30 09:09:07;;;;;;;;;;;24.10;94.20;;;;;;5070966;28;20577;-47
2021/07/30 09:11:34;;;;;;;;;;;24.20;94.50;;;;;;5089093;28;20352;-50
2021/07/30 09:14:01;;;;;;;;;;;24.20;93.30;;;;;;5089036;28;20393;-47
2021/07/30 09:16:26;;;;;;;;;;;24.40;92.90;;;;;;5088848;28;19912;-51
2021/07/30 09:18:52;;;;;;;;;;;24.50;92.90;;;;;;5088944;28;19915;-50
2021/07/30 09:21:28;;;;;;;;;;;24.30;92.90;;;;;;5089163;28;19908;-48
2021/07/30 09:24:20;;;;;;;;;;;24.20;91.20;;;;;;5089119;28;20024;-50
2021/07/30 09:26:56;;;;;;;;;;;24.30;92.90;;;;;;5079376;28;19955;-49
2021/07/30 09:29:21;;;;;;;;;;;24.50;92.30;;;;;;5084500;28;19912;-49
2021/07/30 09:31:57;;;;;;;;;;;24.70;92.90;;;;;;5088726;28;19982;-48
2021/07/30 09:34:33;;;;;;;;;;;24.90;93.10;;;;;;5083548;28;20394;-51
2021/07/30 09:37:00;;;;;;;;;;;24.90;92.50;;;;;;5088693;28;19908;-48
2021/07/30 09:39:46;;;;;;;;;;;25.00;91.40;;;;;;5088916;28;20460;-53
2021/07/30 09:42:12;;;;;;;;;;;24.90;92.30;;;;;;5088035;28;19915;-46
2021/07/30 09:44:43;;;;;;;;;;;25.00;92.10;;;;;;5086844;28;19912;-54
2021/07/30 09:47:13;;;;;;;;;;;25.00;92.10;;;;;;5088568;28;19947;-50
2021/07/30 09:49:44;;;;;;;;;;;24.90;90.50;;;;;;5087383;28;19962;-50
2021/07/30 09:52:11;;;;;;;;;;;24.90;90.40;;;;;;5088946;28;19929;-47
2021/07/30 09:54:42;;;;;;;;;;;24.90;89.80;;;;;;5088588;28;19951;-50
2021/07/30 09:57:08;;;;;;;;;;;24.80;90.80;;;;;;5087477;28;19930;-50
2021/07/30 09:59:37;;;;;;;;;;;25.00;89.40;;;;;;5088361;28;20394;-47
2021/07/30 10:02:05;;;;;;;;;;;25.10;90.90;;;;;;5069318;28;19915;-50
2021/07/30 10:04:32;;;;;;;;;;;25.30;90.00;;;;;;5072091;28;20003;-47
2021/07/30 10:07:00;;;;;;;;;;;25.30;86.90;;;;;;5085948;28;19969;-48
2021/07/30 10:09:26;;;;;;;;;;;25.20;87.00;;;;;;5088397;28;19915;-52
2021/07/30 10:11:52;;;;;;;;;;;25.00;85.20;;;;;;5088325;28;19912;-52
2021/07/30 10:14:18;;;;;;;;;;;25.00;88.70;;;;;;5087966;28;19908;-49
2021/07/30 10:16:57;;;;;;;;;;;25.10;87.10;;;;;;5090803;28;19912;-53
2021/07/30 10:19:22;;;;;;;;;;;24.90;86.30;;;;;;5086408;28;19908;-48
2021/07/30 10:21:48;;;;;;;;;;;25.00;89.30;;;;;;5091888;28;19930;-51
2021/07/30 10:24:15;;;;;;;;;;;25.00;88.50;;;;;;5090162;28;19916;-50
2021/07/30 10:26:40;;;;;;;;;;;25.00;86.20;;;;;;5073638;28;20378;-49
2021/07/30 10:29:07;;;;;;;;;;;25.00;87.30;;;;;;5091941;28;19995;-49
2021/07/30 10:31:49;;;;;;;;;;;25.10;84.50;;;;;;5086493;28;20287;-54
2021/07/30 10:34:15;;;;;;;;;;;25.20;84.70;;;;;;5081433;28;19916;-50
2021/07/30 10:36:41;;;;;;;;;;;25.20;86.30;;;;;;5072496;28;19958;-47
2021/07/30 10:39:11;;;;;;;;;;;25.30;84.90;;;;;;5078200;28;19912;-49
2021/07/30 10:41:40;;;;;;;;;;;25.50;87.40;;;;;;5090134;28;19927;-51
2021/07/30 10:44:06;;;;;;;;;;;25.40;83.20;;;;;;5091449;28;19912;-49
2021/07/30 10:46:32;;;;;;;;;;;25.20;83.20;;;;;;5091153;28;19946;-48
2021/07/30 10:48:58;;;;;;;;;;;25.20;84.20;;;;;;5091048;28;19956;-51
2021/07/30 10:51:24;;;;;;;;;;;25.10;84.40;;;;;;5089639;28;19951;-47
2021/07/30 10:53:59;;;;;;;;;;;25.00;83.50;;;;;;5087940;28;19917;-48
2021/07/30 10:56:28;;;;;;;;;;;25.10;85.40;;;;;;5090846;28;20352;-50
2021/07/30 10:58:55;;;;;;;;;;;25.00;80.70;;;;;;5091228;28;20370;-50
2021/07/30 11:01:27;;;;;;;;;;;24.90;86.80;;;;;;5091429;28;19961;-48
2021/07/30 11:03:52;;;;;;;;;;;24.90;84.20;;;;;;5088302;28;19912;-50
2021/07/30 11:06:18;;;;;;;;;;;24.90;82.90;;;;;;5090965;28;19919;-47
2021/07/30 11:08:58;;;;;;;;;;;25.00;84.80;;;;;;5090856;28;19908;-47
2021/07/30 11:11:42;;;;;;;;;;;25.10;85.00;;;;;;5084311;28;19916;-49
2021/07/30 11:14:27;;;;;;;;;;;25.00;83.30;;;;;;5071879;28;20443;-50
2021/07/30 11:16:57;;;;;;;;;;;24.80;82.70;;;;;;5086495;28;19924;-48
2021/07/30 11:19:24;;;;;;;;;;;24.80;82.90;;;;;;5091248;28;19923;-48
2021/07/30 11:21:50;;;;;;;;;;;24.90;83.60;;;;;;5090939;28;19912;-47
2021/07/30 11:24:15;;;;;;;;;;;25.10;85.00;;;;;;5087292;28;19919;-49
2021/07/30 11:26:41;;;;;;;;;;;25.20;83.40;;;;;;5088053;28;19908;-48
2021/07/30 11:29:08;;;;;;;;;;;25.30;84.60;;;;;;5089403;28;19935;-53
2021/07/30 11:31:37;;;;;;;;;;;25.40;81.80;;;;;;5091054;28;19938;-48
2021/07/30 11:34:03;;;;;;;;;;;25.40;82.00;;;;;;5090952;28;19916;-51
2021/07/30 11:36:28;;;;;;;;;;;25.40;80.60;;;;;;5090180;28;19923;-47
2021/07/30 11:38:59;;;;;;;;;;;25.30;83.30;;;;;;5090611;28;19970;-48
2021/07/30 11:41:24;;;;;;;;;;;25.50;82.90;;;;;;5090850;28;20401;-48
2021/07/30 11:44:00;;;;;;;;;;;25.40;81.90;;;;;;5091037;28;19908;-49
2021/07/30 11:46:26;;;;;;;;;;;25.30;83.60;;;;;;5090698;28;20332;-48
2021/07/30 11:48:52;;;;;;;;;;;25.20;82.70;;;;;;5090996;28;19916;-48
2021/07/30 11:51:21;;;;;;;;;;;25.00;79.50;;;;;;5072553;28;19969;-50
2021/07/30 11:53:50;;;;;;;;;;;24.90;83.70;;;;;;5090827;28;19931;-49
2021/07/30 11:56:19;;;;;;;;;;;24.90;83.60;;;;;;5090186;28;20290;-50
2021/07/30 11:58:55;;;;;;;;;;;25.00;85.10;;;;;;5086408;28;19965;-47
2021/07/30 12:01:20;;;;;;;;;;;25.00;82.30;;;;;;5083173;28;19915;-49
2021/07/30 12:04:03;;;;;;;;;;;25.10;83.80;;;;;;5090296;28;19908;-48
2021/07/30 12:06:29;;;;;;;;;;;25.20;80.20;;;;;;5090124;28;19920;-50
2021/07/30 12:08:55;;;;;;;;;;;25.40;81.70;;;;;;5090349;28;19908;-49
2021/07/30 12:11:23;;;;;;;;;;;25.40;80.10;;;;;;5090690;28;19908;-48
2021/07/30 12:13:48;;;;;;;;;;;25.50;79.60;;;;;;5090603;28;19912;-53
2021/07/30 12:16:14;;;;;;;;;;;25.70;80.30;;;;;;5089828;28;19919;-52
2021/07/30 12:18:42;;;;;;;;;;;25.70;78.90;;;;;;5090166;28;19995;-49
2021/07/30 12:21:08;;;;;;;;;;;25.80;79.00;;;;;;5089997;28;19908;-47
2021/07/30 12:23:33;;;;;;;;;;;25.80;80.20;;;;;;5089990;28;19908;-49
2021/07/30 12:25:59;;;;;;;;;;;25.90;81.80;;;;;;5089577;28;19955;-51
2021/07/30 12:28:26;;;;;;;;;;;26.00;76.60;;;;;;5090142;28;19912;-52
2021/07/30 12:30:53;;;;;;;;;;;25.60;77.50;;;;;;5088757;28;19908;-49
2021/07/30 12:33:26;;;;;;;;;;;25.50;78.60;;;;;;5089777;28;19908;-52
2021/07/30 12:36:04;;;;;;;;;;;25.60;80.80;;;;;;5089136;28;19934;-48
2021/07/30 12:38:30;;;;;;;;;;;25.80;80.00;;;;;;5082740;28;20267;-48
2021/07/30 12:41:11;;;;;;;;;;;25.80;80.40;;;;;;5089703;28;19914;-50
2021/07/30 12:43:37;;;;;;;;;;;25.80;77.70;;;;;;5083814;28;20294;-48
2021/07/30 12:46:03;;;;;;;;;;;25.80;79.70;;;;;;5089432;28;19912;-50
2021/07/30 12:48:28;;;;;;;;;;;25.80;76.30;;;;;;5088952;28;19912;-48
2021/07/30 12:50:54;;;;;;;;;;;26.00;80.20;;;;;;5088923;28;20290;-49
2021/07/30 12:53:20;;;;;;;;;;;26.10;77.70;;;;;;5089530;28;19908;-49
2021/07/30 12:55:55;;;;;;;;;;;26.10;75.10;;;;;;5088874;28;19919;-52
2021/07/30 12:58:21;;;;;;;;;;;26.10;74.50;;;;;;5085735;28;19920;-50
2021/07/30 13:00:50;;;;;;;;;;;26.20;75.20;;;;;;5089217;28;19953;-50
2021/07/30 13:03:15;;;;;;;;;;;26.20;76.00;;;;;;5084328;28;20334;-48
2021/07/30 13:05:42;;;;;;;;;;;26.00;75.10;;;;;;5088691;28;19950;-48
2021/07/30 13:08:08;;;;;;;;;;;26.00;75.30;;;;;;5089299;28;20007;-49
2021/07/30 13:10:34;;;;;;;;;;;26.10;76.80;;;;;;5089022;28;20382;-51
2021/07/30 13:12:59;;;;;;;;;;;26.00;73.40;;;;;;5089438;28;20027;-48
2021/07/30 13:15:25;;;;;;;;;;;26.10;72.50;;;;;;5088439;28;19919;-49
2021/07/30 13:17:50;;;;;;;;;;;26.20;74.90;;;;;;5088916;28;19916;-53
2021/07/30 13:20:16;;;;;;;;;;;26.30;73.00;;;;;;5070537;28;19948;-49
2021/07/30 13:22:42;;;;;;;;;;;26.30;73.50;;;;;;5088780;28;19908;-49
2021/07/30 13:25:07;;;;;;;;;;;26.50;72.20;;;;;;5070426;28;19908;-47
2021/07/30 13:27:33;;;;;;;;;;;26.50;71.40;;;;;;5088949;28;19912;-47
2021/07/30 13:29:58;;;;;;;;;;;26.50;71.20;;;;;;5088955;28;19909;-53
2021/07/30 13:32:24;;;;;;;;;;;26.50;72.70;;;;;;5089152;28;19916;-51
2021/07/30 13:34:49;;;;;;;;;;;26.60;72.10;;;;;;5088304;28;19922;-47
2021/07/30 13:37:15;;;;;;;;;;;26.70;69.80;;;;;;5088650;28;19999;-51
2021/07/30 13:39:40;;;;;;;;;;;26.70;70.90;;;;;;5088443;28;19954;-48
2021/07/30 13:42:06;;;;;;;;;;;26.50;70.90;;;;;;5088359;28;19908;-48
2021/07/30 13:44:31;;;;;;;;;;;26.60;74.70;;;;;;5088116;28;20212;-49
2021/07/30 13:46:57;;;;;;;;;;;26.70;72.10;;;;;;5088532;28;19915;-48
2021/07/30 13:49:23;;;;;;;;;;;26.70;73.40;;;;;;5089042;28;20332;-53
2021/07/30 13:51:49;;;;;;;;;;;26.70;70.20;;;;;;5092745;28;20382;-48
2021/07/30 13:54:14;;;;;;;;;;;26.60;71.90;;;;;;5092636;28;19953;-54
2021/07/30 13:56:39;;;;;;;;;;;26.80;70.20;;;;;;5092026;28;20386;-50
2021/07/30 13:59:05;;;;;;;;;;;26.60;67.90;;;;;;5092510;28;19968;-51
2021/07/30 14:01:31;;;;;;;;;;;26.50;69.40;;;;;;5092469;28;19995;-51
2021/07/30 14:03:56;;;;;;;;;;;26.60;71.30;;;;;;5091147;28;19915;-49
2021/07/30 14:06:21;;;;;;;;;;;26.50;70.70;;;;;;5092430;28;19912;-50
2021/07/30 14:08:47;;;;;;;;;;;26.70;70.40;;;;;;5092401;28;19948;-48
2021/07/30 14:11:14;;;;;;;;;;;26.80;70.00;;;;;;5091324;28;19916;-52
2021/07/30 14:13:39;;;;;;;;;;;26.90;68.70;;;;;;5092364;28;20013;-49
2021/07/30 14:16:05;;;;;;;;;;;26.80;68.10;;;;;;5091936;28;19954;-50
2021/07/30 14:18:30;;;;;;;;;;;26.90;69.60;;;;;;5092143;28;19908;-54
2021/07/30 14:20:56;;;;;;;;;;;26.90;69.30;;;;;;5092258;28;19908;-47
2021/07/30 14:23:21;;;;;;;;;;;26.80;66.40;;;;;;5091496;28;19915;-50
2021/07/30 14:25:46;;;;;;;;;;;26.60;68.10;;;;;;5092218;28;20294;-55
2021/07/30 14:28:12;;;;;;;;;;;26.50;68.80;;;;;;5092639;28;19986;-52
2021/07/30 14:30:39;;;;;;;;;;;26.70;70.30;;;;;;5092762;28;20007;-48
2021/07/30 14:33:05;;;;;;;;;;;26.70;69.20;;;;;;5090678;28;19912;-53
2021/07/30 14:35:30;;;;;;;;;;;26.60;67.60;;;;;;5115136;22;19924;-50
2021/07/30 14:37:56;;;;;;;;;;;26.70;68.30;;;;;;5092295;28;20303;-50
2021/07/30 14:40:21;;;;;;;;;;;26.70;68.50;;;;;;5092433;28;19918;-51
2021/07/30 14:42:47;;;;;;;;;;;26.60;68.70;;;;;;5092603;28;20362;-48